sensor_id;sensor_type;location;lat;lon;timestamp;P1;durP1;ratioP1;P2;durP2;ratioP2
60016;SDS011;45869;52.698;6.210;2023-05-07T00:01:32;11.38;;;8.90;;
60016;SDS011;45869;52.698;6.210;2023-05-07T00:03:58;11.95;;;9.95;;
60016;SDS011;45869;52.698;6.210;2023-05-07T00:06:24;13.45;;;12.00;;
60016;SDS011;45869;52.698;6.210;2023-05-07T00:08:51;12.88;;;10.82;;
60016;SDS011;45869;52.698;6.210;2023-05-07T00:11:17;11.35;;;10.15;;
60016;SDS011;45869;52.698;6.210;2023-05-07T00:13:47;13.88;;;11.23;;
60016;SDS011;45869;52.698;6.210;2023-05-07T00:16:13;12.95;;;10.52;;
60016;SDS011;45869;52.698;6.210;2023-05-07T00:18:39;16.80;;;14.07;;
60016;SDS011;45869;52.698;6.210;2023-05-07T00:21:05;13.88;;;12.15;;
60016;SDS011;45869;52.698;6.210;2023-05-07T00:23:31;13.57;;;12.18;;
60016;SDS011;45869;52.698;6.210;2023-05-07T00:25:57;12.50;;;11.20;;
60016;SDS011;45869;52.698;6.210;2023-05-07T00:28:23;14.25;;;12.75;;
60016;SDS011;45869;52.698;6.210;2023-05-07T00:30:49;13.02;;;11.20;;
60016;SDS011;45869;52.698;6.210;2023-05-07T00:33:15;14.43;;;11.88;;
60016;SDS011;45869;52.698;6.210;2023-05-07T00:35:42;15.15;;;13.55;;
60016;SDS011;45869;52.698;6.210;2023-05-07T00:38:08;13.73;;;11.95;;
60016;SDS011;45869;52.698;6.210;2023-05-07T00:40:34;16.98;;;13.48;;
60016;SDS011;45869;52.698;6.210;2023-05-07T00:43:02;16.55;;;12.73;;
60016;SDS011;45869;52.698;6.210;2023-05-07T00:45:28;18.38;;;15.68;;
60016;SDS011;45869;52.698;6.210;2023-05-07T00:47:59;17.63;;;15.70;;
60016;SDS011;45869;52.698;6.210;2023-05-07T00:50:26;15.50;;;13.90;;
60016;SDS011;45869;52.698;6.210;2023-05-07T00:52:55;19.23;;;17.05;;
60016;SDS011;45869;52.698;6.210;2023-05-07T00:55:22;20.38;;;17.85;;
60016;SDS011;45869;52.698;6.210;2023-05-07T00:57:48;17.27;;;15.45;;
60016;SDS011;45869;52.698;6.210;2023-05-07T01:00:15;17.83;;;15.98;;
60016;SDS011;45869;52.698;6.210;2023-05-07T01:02:41;19.70;;;16.70;;
60016;SDS011;45869;52.698;6.210;2023-05-07T01:05:08;17.90;;;15.63;;
60016;SDS011;45869;52.698;6.210;2023-05-07T01:07:34;18.05;;;16.15;;
60016;SDS011;45869;52.698;6.210;2023-05-07T01:10:01;19.88;;;15.48;;
60016;SDS011;45869;52.698;6.210;2023-05-07T01:12:28;18.17;;;16.00;;
60016;SDS011;45869;52.698;6.210;2023-05-07T01:14:54;24.55;;;17.90;;
60016;SDS011;45869;52.698;6.210;2023-05-07T01:17:20;22.08;;;19.05;;
60016;SDS011;45869;52.698;6.210;2023-05-07T01:19:46;20.45;;;17.70;;
60016;SDS011;45869;52.698;6.210;2023-05-07T01:22:13;19.67;;;17.35;;
60016;SDS011;45869;52.698;6.210;2023-05-07T01:24:41;20.10;;;18.00;;
60016;SDS011;45869;52.698;6.210;2023-05-07T01:27:07;20.23;;;17.70;;
60016;SDS011;45869;52.698;6.210;2023-05-07T01:29:33;20.10;;;17.88;;
60016;SDS011;45869;52.698;6.210;2023-05-07T01:32:00;18.80;;;16.77;;
60016;SDS011;45869;52.698;6.210;2023-05-07T01:34:27;20.48;;;17.52;;
60016;SDS011;45869;52.698;6.210;2023-05-07T01:36:54;20.60;;;17.55;;
60016;SDS011;45869;52.698;6.210;2023-05-07T01:39:24;21.67;;;18.00;;
60016;SDS011;45869;52.698;6.210;2023-05-07T01:41:50;20.33;;;17.77;;
60016;SDS011;45869;52.698;6.210;2023-05-07T01:44:16;21.35;;;17.33;;
60016;SDS011;45869;52.698;6.210;2023-05-07T01:46:44;20.58;;;17.30;;
60016;SDS011;45869;52.698;6.210;2023-05-07T01:49:10;20.95;;;17.40;;
60016;SDS011;45869;52.698;6.210;2023-05-07T01:51:36;18.83;;;16.60;;
60016;SDS011;45869;52.698;6.210;2023-05-07T01:54:02;18.48;;;15.57;;
60016;SDS011;45869;52.698;6.210;2023-05-07T01:56:28;18.02;;;15.27;;
60016;SDS011;45869;52.698;6.210;2023-05-07T01:58:55;18.80;;;16.23;;
60016;SDS011;45869;52.698;6.210;2023-05-07T02:01:21;17.45;;;15.55;;
60016;SDS011;45869;52.698;6.210;2023-05-07T02:03:47;18.27;;;15.10;;
60016;SDS011;45869;52.698;6.210;2023-05-07T02:06:13;16.05;;;13.48;;
60016;SDS011;45869;52.698;6.210;2023-05-07T02:08:39;16.27;;;13.30;;
60016;SDS011;45869;52.698;6.210;2023-05-07T02:11:05;16.45;;;13.35;;
60016;SDS011;45869;52.698;6.210;2023-05-07T02:13:32;14.60;;;12.43;;
60016;SDS011;45869;52.698;6.210;2023-05-07T02:15:58;16.67;;;13.40;;
60016;SDS011;45869;52.698;6.210;2023-05-07T02:18:24;16.58;;;13.27;;
60016;SDS011;45869;52.698;6.210;2023-05-07T02:20:59;16.77;;;13.10;;
60016;SDS011;45869;52.698;6.210;2023-05-07T02:23:25;19.48;;;14.48;;
60016;SDS011;45869;52.698;6.210;2023-05-07T02:25:51;17.77;;;13.77;;
60016;SDS011;45869;52.698;6.210;2023-05-07T02:28:17;16.92;;;14.00;;
60016;SDS011;45869;52.698;6.210;2023-05-07T02:30:43;15.75;;;13.68;;
60016;SDS011;45869;52.698;6.210;2023-05-07T02:33:10;16.98;;;13.23;;
60016;SDS011;45869;52.698;6.210;2023-05-07T02:35:37;16.13;;;13.15;;
60016;SDS011;45869;52.698;6.210;2023-05-07T02:38:03;20.50;;;14.68;;
60016;SDS011;45869;52.698;6.210;2023-05-07T02:40:29;17.05;;;13.55;;
60016;SDS011;45869;52.698;6.210;2023-05-07T02:42:58;20.33;;;15.23;;
60016;SDS011;45869;52.698;6.210;2023-05-07T02:45:27;18.00;;;15.13;;
60016;SDS011;45869;52.698;6.210;2023-05-07T02:47:53;19.83;;;15.50;;
60016;SDS011;45869;52.698;6.210;2023-05-07T02:50:20;18.88;;;14.90;;
60016;SDS011;45869;52.698;6.210;2023-05-07T02:52:46;19.17;;;14.85;;
60016;SDS011;45869;52.698;6.210;2023-05-07T02:55:12;21.42;;;16.27;;
60016;SDS011;45869;52.698;6.210;2023-05-07T02:57:38;18.58;;;15.05;;
60016;SDS011;45869;52.698;6.210;2023-05-07T03:00:14;18.35;;;16.00;;
60016;SDS011;45869;52.698;6.210;2023-05-07T03:02:41;19.88;;;16.35;;
60016;SDS011;45869;52.698;6.210;2023-05-07T03:05:07;19.70;;;16.02;;
60016;SDS011;45869;52.698;6.210;2023-05-07T03:07:34;20.00;;;16.58;;
60016;SDS011;45869;52.698;6.210;2023-05-07T03:10:03;19.58;;;16.15;;
60016;SDS011;45869;52.698;6.210;2023-05-07T03:12:30;19.60;;;15.57;;
60016;SDS011;45869;52.698;6.210;2023-05-07T03:14:56;19.95;;;16.00;;
60016;SDS011;45869;52.698;6.210;2023-05-07T03:17:22;22.17;;;16.70;;
60016;SDS011;45869;52.698;6.210;2023-05-07T03:19:48;19.02;;;16.23;;
60016;SDS011;45869;52.698;6.210;2023-05-07T03:22:14;21.85;;;17.00;;
60016;SDS011;45869;52.698;6.210;2023-05-07T03:24:40;19.73;;;17.40;;
60016;SDS011;45869;52.698;6.210;2023-05-07T03:27:06;21.70;;;17.65;;
60016;SDS011;45869;52.698;6.210;2023-05-07T03:29:32;22.42;;;18.05;;
60016;SDS011;45869;52.698;6.210;2023-05-07T03:31:58;21.38;;;17.38;;
60016;SDS011;45869;52.698;6.210;2023-05-07T03:34:24;21.33;;;17.88;;
60016;SDS011;45869;52.698;6.210;2023-05-07T03:36:50;25.65;;;18.27;;
60016;SDS011;45869;52.698;6.210;2023-05-07T03:39:16;20.98;;;17.48;;
60016;SDS011;45869;52.698;6.210;2023-05-07T03:41:42;22.00;;;17.30;;
60016;SDS011;45869;52.698;6.210;2023-05-07T03:44:08;20.65;;;16.65;;
60016;SDS011;45869;52.698;6.210;2023-05-07T03:46:34;23.23;;;18.25;;
60016;SDS011;45869;52.698;6.210;2023-05-07T03:49:00;20.80;;;16.83;;
60016;SDS011;45869;52.698;6.210;2023-05-07T03:51:26;21.88;;;17.55;;
60016;SDS011;45869;52.698;6.210;2023-05-07T03:53:52;19.85;;;16.90;;
60016;SDS011;45869;52.698;6.210;2023-05-07T03:56:19;21.85;;;18.42;;
60016;SDS011;45869;52.698;6.210;2023-05-07T03:58:47;22.48;;;18.23;;
60016;SDS011;45869;52.698;6.210;2023-05-07T04:01:13;23.00;;;18.05;;
60016;SDS011;45869;52.698;6.210;2023-05-07T04:03:39;23.05;;;18.90;;
60016;SDS011;45869;52.698;6.210;2023-05-07T04:06:05;22.42;;;18.55;;
60016;SDS011;45869;52.698;6.210;2023-05-07T04:08:31;23.35;;;19.10;;
60016;SDS011;45869;52.698;6.210;2023-05-07T04:10:57;23.88;;;19.58;;
60016;SDS011;45869;52.698;6.210;2023-05-07T04:13:26;24.77;;;20.00;;
60016;SDS011;45869;52.698;6.210;2023-05-07T04:15:53;23.95;;;20.25;;
60016;SDS011;45869;52.698;6.210;2023-05-07T04:18:19;25.48;;;20.77;;
60016;SDS011;45869;52.698;6.210;2023-05-07T04:20:46;24.38;;;19.85;;
60016;SDS011;45869;52.698;6.210;2023-05-07T04:23:12;28.05;;;21.10;;
60016;SDS011;45869;52.698;6.210;2023-05-07T04:25:38;27.92;;;21.50;;
60016;SDS011;45869;52.698;6.210;2023-05-07T04:28:04;25.90;;;19.88;;
60016;SDS011;45869;52.698;6.210;2023-05-07T04:30:30;27.17;;;21.30;;
60016;SDS011;45869;52.698;6.210;2023-05-07T04:32:59;28.33;;;22.17;;
60016;SDS011;45869;52.698;6.210;2023-05-07T04:35:26;25.35;;;20.92;;
60016;SDS011;45869;52.698;6.210;2023-05-07T04:37:52;26.33;;;22.35;;
60016;SDS011;45869;52.698;6.210;2023-05-07T04:40:18;27.90;;;21.67;;
60016;SDS011;45869;52.698;6.210;2023-05-07T04:42:44;34.20;;;23.20;;
60016;SDS011;45869;52.698;6.210;2023-05-07T04:45:10;29.20;;;22.88;;
60016;SDS011;45869;52.698;6.210;2023-05-07T04:47:37;30.23;;;22.92;;
60016;SDS011;45869;52.698;6.210;2023-05-07T04:50:03;30.35;;;21.95;;
60016;SDS011;45869;52.698;6.210;2023-05-07T04:52:29;28.30;;;22.48;;
60016;SDS011;45869;52.698;6.210;2023-05-07T04:54:56;28.77;;;22.58;;
60016;SDS011;45869;52.698;6.210;2023-05-07T04:57:22;29.48;;;22.52;;
60016;SDS011;45869;52.698;6.210;2023-05-07T04:59:48;29.30;;;22.85;;
60016;SDS011;45869;52.698;6.210;2023-05-07T05:02:14;30.63;;;22.88;;
60016;SDS011;45869;52.698;6.210;2023-05-07T05:04:40;29.33;;;23.38;;
60016;SDS011;45869;52.698;6.210;2023-05-07T05:07:06;32.00;;;24.52;;
60016;SDS011;45869;52.698;6.210;2023-05-07T05:09:32;31.35;;;24.92;;
60016;SDS011;45869;52.698;6.210;2023-05-07T05:11:58;33.63;;;25.65;;
60016;SDS011;45869;52.698;6.210;2023-05-07T05:14:28;34.67;;;26.15;;
60016;SDS011;45869;52.698;6.210;2023-05-07T05:16:54;35.03;;;26.20;;
60016;SDS011;45869;52.698;6.210;2023-05-07T05:19:20;32.65;;;25.45;;
60016;SDS011;45869;52.698;6.210;2023-05-07T05:21:46;33.70;;;25.73;;
60016;SDS011;45869;52.698;6.210;2023-05-07T05:24:12;34.78;;;26.17;;
60016;SDS011;45869;52.698;6.210;2023-05-07T05:26:38;33.95;;;26.15;;
60016;SDS011;45869;52.698;6.210;2023-05-07T05:29:04;33.60;;;26.10;;
60016;SDS011;45869;52.698;6.210;2023-05-07T05:31:30;32.97;;;25.42;;
60016;SDS011;45869;52.698;6.210;2023-05-07T05:33:56;32.75;;;25.52;;
60016;SDS011;45869;52.698;6.210;2023-05-07T05:36:22;32.88;;;24.73;;
60016;SDS011;45869;52.698;6.210;2023-05-07T05:38:48;32.08;;;25.60;;
60016;SDS011;45869;52.698;6.210;2023-05-07T05:41:14;32.53;;;25.90;;
60016;SDS011;45869;52.698;6.210;2023-05-07T05:43:40;33.88;;;26.23;;
60016;SDS011;45869;52.698;6.210;2023-05-07T05:46:06;33.85;;;25.38;;
60016;SDS011;45869;52.698;6.210;2023-05-07T05:48:33;34.78;;;27.13;;
60016;SDS011;45869;52.698;6.210;2023-05-07T05:50:59;36.45;;;26.60;;
60016;SDS011;45869;52.698;6.210;2023-05-07T05:53:25;33.45;;;25.92;;
60016;SDS011;45869;52.698;6.210;2023-05-07T05:55:51;33.35;;;26.30;;
60016;SDS011;45869;52.698;6.210;2023-05-07T05:58:18;33.97;;;26.60;;
60016;SDS011;45869;52.698;6.210;2023-05-07T06:00:44;32.78;;;26.13;;
60016;SDS011;45869;52.698;6.210;2023-05-07T06:03:10;30.35;;;24.00;;
60016;SDS011;45869;52.698;6.210;2023-05-07T06:05:36;31.98;;;25.75;;
60016;SDS011;45869;52.698;6.210;2023-05-07T06:08:02;28.98;;;23.77;;
60016;SDS011;45869;52.698;6.210;2023-05-07T06:10:31;30.17;;;24.25;;
60016;SDS011;45869;52.698;6.210;2023-05-07T06:12:57;34.63;;;25.58;;
60016;SDS011;45869;52.698;6.210;2023-05-07T06:15:23;34.38;;;25.77;;
60016;SDS011;45869;52.698;6.210;2023-05-07T06:17:50;30.70;;;25.15;;
60016;SDS011;45869;52.698;6.210;2023-05-07T06:20:18;32.20;;;24.35;;
60016;SDS011;45869;52.698;6.210;2023-05-07T06:22:44;31.83;;;24.35;;
60016;SDS011;45869;52.698;6.210;2023-05-07T06:25:10;29.83;;;23.95;;
60016;SDS011;45869;52.698;6.210;2023-05-07T06:27:36;29.50;;;23.25;;
60016;SDS011;45869;52.698;6.210;2023-05-07T06:30:04;29.15;;;24.13;;
60016;SDS011;45869;52.698;6.210;2023-05-07T06:32:31;28.67;;;23.00;;
60016;SDS011;45869;52.698;6.210;2023-05-07T06:34:59;29.88;;;22.95;;
60016;SDS011;45869;52.698;6.210;2023-05-07T06:37:25;30.38;;;23.88;;
60016;SDS011;45869;52.698;6.210;2023-05-07T06:39:51;27.70;;;22.80;;
60016;SDS011;45869;52.698;6.210;2023-05-07T06:42:17;28.88;;;23.83;;
60016;SDS011;45869;52.698;6.210;2023-05-07T06:44:43;27.27;;;21.67;;
60016;SDS011;45869;52.698;6.210;2023-05-07T06:47:09;28.10;;;22.55;;
60016;SDS011;45869;52.698;6.210;2023-05-07T06:49:35;28.80;;;23.33;;
60016;SDS011;45869;52.698;6.210;2023-05-07T06:52:01;29.83;;;22.40;;
60016;SDS011;45869;52.698;6.210;2023-05-07T06:54:28;29.80;;;22.88;;
60016;SDS011;45869;52.698;6.210;2023-05-07T06:56:54;29.08;;;22.65;;
60016;SDS011;45869;52.698;6.210;2023-05-07T06:59:20;28.10;;;22.70;;
60016;SDS011;45869;52.698;6.210;2023-05-07T07:01:49;27.65;;;21.73;;
60016;SDS011;45869;52.698;6.210;2023-05-07T07:04:18;26.67;;;21.58;;
60016;SDS011;45869;52.698;6.210;2023-05-07T07:06:45;27.48;;;21.90;;
60016;SDS011;45869;52.698;6.210;2023-05-07T07:09:14;29.00;;;21.88;;
60016;SDS011;45869;52.698;6.210;2023-05-07T07:11:40;26.17;;;20.88;;
60016;SDS011;45869;52.698;6.210;2023-05-07T07:14:08;25.13;;;20.88;;
60016;SDS011;45869;52.698;6.210;2023-05-07T07:16:34;23.75;;;20.17;;
60016;SDS011;45869;52.698;6.210;2023-05-07T07:19:00;25.83;;;20.50;;
60016;SDS011;45869;52.698;6.210;2023-05-07T07:21:29;25.80;;;20.85;;
60016;SDS011;45869;52.698;6.210;2023-05-07T07:23:58;27.23;;;21.05;;
60016;SDS011;45869;52.698;6.210;2023-05-07T07:26:24;24.95;;;20.55;;
60016;SDS011;45869;52.698;6.210;2023-05-07T07:28:50;27.63;;;21.20;;
60016;SDS011;45869;52.698;6.210;2023-05-07T07:31:19;25.25;;;19.75;;
60016;SDS011;45869;52.698;6.210;2023-05-07T07:33:45;25.95;;;20.92;;
60016;SDS011;45869;52.698;6.210;2023-05-07T07:36:11;23.67;;;20.30;;
60016;SDS011;45869;52.698;6.210;2023-05-07T07:38:37;24.08;;;19.92;;
60016;SDS011;45869;52.698;6.210;2023-05-07T07:41:07;27.27;;;21.08;;
60016;SDS011;45869;52.698;6.210;2023-05-07T07:43:34;25.88;;;20.65;;
60016;SDS011;45869;52.698;6.210;2023-05-07T07:46:00;26.45;;;19.98;;
60016;SDS011;45869;52.698;6.210;2023-05-07T07:48:26;24.83;;;19.88;;
60016;SDS011;45869;52.698;6.210;2023-05-07T07:50:52;27.10;;;19.75;;
60016;SDS011;45869;52.698;6.210;2023-05-07T07:53:19;26.33;;;21.05;;
60016;SDS011;45869;52.698;6.210;2023-05-07T07:55:45;23.52;;;19.35;;
60016;SDS011;45869;52.698;6.210;2023-05-07T07:58:11;25.02;;;19.95;;
60016;SDS011;45869;52.698;6.210;2023-05-07T08:00:37;24.33;;;19.42;;
60016;SDS011;45869;52.698;6.210;2023-05-07T08:03:03;27.55;;;20.20;;
60016;SDS011;45869;52.698;6.210;2023-05-07T08:05:30;23.67;;;19.58;;
60016;SDS011;45869;52.698;6.210;2023-05-07T08:07:58;24.45;;;20.30;;
60016;SDS011;45869;52.698;6.210;2023-05-07T08:10:25;24.15;;;20.08;;
60016;SDS011;45869;52.698;6.210;2023-05-07T08:12:51;24.15;;;20.02;;
60016;SDS011;45869;52.698;6.210;2023-05-07T08:15:17;24.42;;;19.65;;
60016;SDS011;45869;52.698;6.210;2023-05-07T08:17:43;22.80;;;19.20;;
60016;SDS011;45869;52.698;6.210;2023-05-07T08:20:09;23.48;;;19.73;;
60016;SDS011;45869;52.698;6.210;2023-05-07T08:22:35;22.88;;;19.48;;
60016;SDS011;45869;52.698;6.210;2023-05-07T08:25:02;24.85;;;20.48;;
60016;SDS011;45869;52.698;6.210;2023-05-07T08:27:28;27.70;;;21.08;;
60016;SDS011;45869;52.698;6.210;2023-05-07T08:29:57;24.55;;;20.45;;
60016;SDS011;45869;52.698;6.210;2023-05-07T08:32:23;24.90;;;19.73;;
60016;SDS011;45869;52.698;6.210;2023-05-07T08:34:49;24.80;;;19.95;;
60016;SDS011;45869;52.698;6.210;2023-05-07T08:37:15;25.73;;;19.58;;
60016;SDS011;45869;52.698;6.210;2023-05-07T08:39:41;24.55;;;19.30;;
60016;SDS011;45869;52.698;6.210;2023-05-07T08:42:07;25.63;;;20.13;;
60016;SDS011;45869;52.698;6.210;2023-05-07T08:44:35;24.20;;;20.17;;
60016;SDS011;45869;52.698;6.210;2023-05-07T08:47:05;25.63;;;20.27;;
60016;SDS011;45869;52.698;6.210;2023-05-07T08:49:31;24.17;;;19.10;;
60016;SDS011;45869;52.698;6.210;2023-05-07T08:51:58;22.30;;;18.92;;
60016;SDS011;45869;52.698;6.210;2023-05-07T08:54:25;22.83;;;19.20;;
60016;SDS011;45869;52.698;6.210;2023-05-07T08:56:51;24.85;;;19.52;;
60016;SDS011;45869;52.698;6.210;2023-05-07T08:59:17;21.85;;;18.60;;
60016;SDS011;45869;52.698;6.210;2023-05-07T09:01:43;22.33;;;17.92;;
60016;SDS011;45869;52.698;6.210;2023-05-07T09:04:09;24.45;;;19.60;;
60016;SDS011;45869;52.698;6.210;2023-05-07T09:06:37;22.48;;;19.08;;
60016;SDS011;45869;52.698;6.210;2023-05-07T09:09:06;22.98;;;17.42;;
60016;SDS011;45869;52.698;6.210;2023-05-07T09:11:33;23.33;;;18.17;;
60016;SDS011;45869;52.698;6.210;2023-05-07T09:13:59;21.13;;;16.52;;
60016;SDS011;45869;52.698;6.210;2023-05-07T09:16:28;22.52;;;17.98;;
60016;SDS011;45869;52.698;6.210;2023-05-07T09:18:58;23.25;;;17.90;;
60016;SDS011;45869;52.698;6.210;2023-05-07T09:21:27;23.33;;;17.95;;
60016;SDS011;45869;52.698;6.210;2023-05-07T09:23:54;24.33;;;18.30;;
60016;SDS011;45869;52.698;6.210;2023-05-07T09:26:24;22.23;;;17.48;;
60016;SDS011;45869;52.698;6.210;2023-05-07T09:28:51;21.35;;;18.20;;
60016;SDS011;45869;52.698;6.210;2023-05-07T09:31:17;23.40;;;18.20;;
60016;SDS011;45869;52.698;6.210;2023-05-07T09:33:43;23.17;;;19.02;;
60016;SDS011;45869;52.698;6.210;2023-05-07T09:36:09;22.13;;;18.27;;
60016;SDS011;45869;52.698;6.210;2023-05-07T09:38:36;22.60;;;18.17;;
60016;SDS011;45869;52.698;6.210;2023-05-07T09:41:03;22.10;;;17.95;;
60016;SDS011;45869;52.698;6.210;2023-05-07T09:43:33;22.65;;;18.15;;
60016;SDS011;45869;52.698;6.210;2023-05-07T09:46:03;22.75;;;17.42;;
60016;SDS011;45869;52.698;6.210;2023-05-07T09:48:32;20.75;;;16.70;;
60016;SDS011;45869;52.698;6.210;2023-05-07T09:51:01;21.13;;;17.33;;
60016;SDS011;45869;52.698;6.210;2023-05-07T09:53:29;20.98;;;17.20;;
60016;SDS011;45869;52.698;6.210;2023-05-07T09:55:56;20.20;;;16.35;;
60016;SDS011;45869;52.698;6.210;2023-05-07T09:58:22;20.73;;;16.85;;
60016;SDS011;45869;52.698;6.210;2023-05-07T10:00:49;22.75;;;17.88;;
60016;SDS011;45869;52.698;6.210;2023-05-07T10:03:16;19.58;;;16.20;;
60016;SDS011;45869;52.698;6.210;2023-05-07T10:05:42;21.23;;;17.15;;
60016;SDS011;45869;52.698;6.210;2023-05-07T10:08:09;23.40;;;17.73;;
60016;SDS011;45869;52.698;6.210;2023-05-07T10:10:35;20.83;;;15.75;;
60016;SDS011;45869;52.698;6.210;2023-05-07T10:13:01;18.92;;;15.95;;
60016;SDS011;45869;52.698;6.210;2023-05-07T10:15:30;20.23;;;16.75;;
60016;SDS011;45869;52.698;6.210;2023-05-07T10:17:57;21.27;;;16.77;;
60016;SDS011;45869;52.698;6.210;2023-05-07T10:20:23;22.48;;;17.67;;
60016;SDS011;45869;52.698;6.210;2023-05-07T10:22:50;21.40;;;17.38;;
60016;SDS011;45869;52.698;6.210;2023-05-07T10:27:46;20.05;;;16.15;;
60016;SDS011;45869;52.698;6.210;2023-05-07T10:32:40;20.58;;;15.88;;
60016;SDS011;45869;52.698;6.210;2023-05-07T10:35:14;20.20;;;15.73;;
60016;SDS011;45869;52.698;6.210;2023-05-07T10:37:41;22.00;;;15.73;;
60016;SDS011;45869;52.698;6.210;2023-05-07T10:40:08;21.15;;;17.45;;
60016;SDS011;45869;52.698;6.210;2023-05-07T10:42:35;21.23;;;16.23;;
60016;SDS011;45869;52.698;6.210;2023-05-07T10:45:13;23.30;;;16.58;;
60016;SDS011;45869;52.698;6.210;2023-05-07T10:50:26;21.08;;;17.02;;
60016;SDS011;45869;52.698;6.210;2023-05-07T10:53:34;22.52;;;17.67;;
60016;SDS011;45869;52.698;6.210;2023-05-07T10:55:41;21.88;;;17.13;;
60016;SDS011;45869;52.698;6.210;2023-05-07T10:58:26;21.60;;;17.55;;
60016;SDS011;45869;52.698;6.210;2023-05-07T11:00:56;19.65;;;16.13;;
60016;SDS011;45869;52.698;6.210;2023-05-07T11:03:22;22.05;;;18.33;;
60016;SDS011;45869;52.698;6.210;2023-05-07T11:06:08;20.65;;;16.30;;
60016;SDS011;45869;52.698;6.210;2023-05-07T11:11:18;18.67;;;14.27;;
60016;SDS011;45869;52.698;6.210;2023-05-07T11:13:50;17.38;;;14.23;;
60016;SDS011;45869;52.698;6.210;2023-05-07T11:16:17;18.02;;;15.02;;
60016;SDS011;45869;52.698;6.210;2023-05-07T11:18:47;18.85;;;14.80;;
60016;SDS011;45869;52.698;6.210;2023-05-07T11:21:31;19.83;;;16.02;;
60016;SDS011;45869;52.698;6.210;2023-05-07T11:23:58;18.30;;;15.20;;
60016;SDS011;45869;52.698;6.210;2023-05-07T11:26:24;21.33;;;15.98;;
60016;SDS011;45869;52.698;6.210;2023-05-07T11:28:50;17.90;;;14.25;;
60016;SDS011;45869;52.698;6.210;2023-05-07T11:31:24;19.35;;;13.68;;
60016;SDS011;45869;52.698;6.210;2023-05-07T11:33:54;16.20;;;12.52;;
60016;SDS011;45869;52.698;6.210;2023-05-07T11:36:21;15.43;;;12.00;;
60016;SDS011;45869;52.698;6.210;2023-05-07T11:38:50;15.45;;;12.10;;
60016;SDS011;45869;52.698;6.210;2023-05-07T11:41:16;17.27;;;14.10;;
60016;SDS011;45869;52.698;6.210;2023-05-07T11:43:57;17.10;;;14.18;;
60016;SDS011;45869;52.698;6.210;2023-05-07T11:46:23;15.98;;;13.30;;
60016;SDS011;45869;52.698;6.210;2023-05-07T11:48:49;17.77;;;13.90;;
60016;SDS011;45869;52.698;6.210;2023-05-07T11:51:18;15.23;;;13.40;;
60016;SDS011;45869;52.698;6.210;2023-05-07T11:53:44;17.70;;;14.57;;
60016;SDS011;45869;52.698;6.210;2023-05-07T11:56:14;14.43;;;12.43;;
60016;SDS011;45869;52.698;6.210;2023-05-07T11:58:40;17.35;;;14.02;;
60016;SDS011;45869;52.698;6.210;2023-05-07T12:01:07;18.20;;;13.82;;
60016;SDS011;45869;52.698;6.210;2023-05-07T12:03:34;18.33;;;13.75;;
60016;SDS011;45869;52.698;6.210;2023-05-07T12:06:02;17.92;;;14.18;;
60016;SDS011;45869;52.698;6.210;2023-05-07T12:08:28;15.98;;;13.05;;
60016;SDS011;45869;52.698;6.210;2023-05-07T12:10:54;18.17;;;13.57;;
60016;SDS011;45869;52.698;6.210;2023-05-07T12:13:21;15.98;;;12.88;;
60016;SDS011;45869;52.698;6.210;2023-05-07T12:15:50;15.52;;;13.68;;
60016;SDS011;45869;52.698;6.210;2023-05-07T12:18:16;16.50;;;13.73;;
60016;SDS011;45869;52.698;6.210;2023-05-07T12:20:42;17.05;;;14.25;;
60016;SDS011;45869;52.698;6.210;2023-05-07T12:23:10;18.25;;;13.05;;
60016;SDS011;45869;52.698;6.210;2023-05-07T12:25:36;17.80;;;14.27;;
60016;SDS011;45869;52.698;6.210;2023-05-07T12:28:03;17.77;;;14.02;;
60016;SDS011;45869;52.698;6.210;2023-05-07T12:30:32;15.65;;;13.27;;
60016;SDS011;45869;52.698;6.210;2023-05-07T12:33:02;17.88;;;13.60;;
60016;SDS011;45869;52.698;6.210;2023-05-07T12:37:54;15.65;;;12.30;;
60016;SDS011;45869;52.698;6.210;2023-05-07T12:40:24;17.08;;;13.40;;
60016;SDS011;45869;52.698;6.210;2023-05-07T12:42:52;15.32;;;12.95;;
60016;SDS011;45869;52.698;6.210;2023-05-07T12:45:21;14.15;;;11.88;;
60016;SDS011;45869;52.698;6.210;2023-05-07T12:47:47;14.38;;;11.98;;
60016;SDS011;45869;52.698;6.210;2023-05-07T12:50:14;16.17;;;12.63;;
60016;SDS011;45869;52.698;6.210;2023-05-07T12:52:40;16.35;;;12.82;;
60016;SDS011;45869;52.698;6.210;2023-05-07T12:55:07;16.10;;;13.02;;
60016;SDS011;45869;52.698;6.210;2023-05-07T12:57:38;15.80;;;13.25;;
60016;SDS011;45869;52.698;6.210;2023-05-07T13:00:07;15.35;;;12.52;;
60016;SDS011;45869;52.698;6.210;2023-05-07T13:02:34;14.77;;;12.20;;
60016;SDS011;45869;52.698;6.210;2023-05-07T13:05:00;15.85;;;13.70;;
60016;SDS011;45869;52.698;6.210;2023-05-07T13:07:27;16.10;;;12.00;;
60016;SDS011;45869;52.698;6.210;2023-05-07T13:09:52;14.02;;;11.48;;
60016;SDS011;45869;52.698;6.210;2023-05-07T13:12:19;15.93;;;13.25;;
60016;SDS011;45869;52.698;6.210;2023-05-07T13:14:45;14.85;;;12.63;;
60016;SDS011;45869;52.698;6.210;2023-05-07T13:17:11;17.00;;;12.27;;
60016;SDS011;45869;52.698;6.210;2023-05-07T13:19:37;13.82;;;12.32;;
60016;SDS011;45869;52.698;6.210;2023-05-07T13:22:03;16.00;;;13.15;;
60016;SDS011;45869;52.698;6.210;2023-05-07T13:24:29;15.85;;;12.50;;
60016;SDS011;45869;52.698;6.210;2023-05-07T13:26:55;15.55;;;13.40;;
60016;SDS011;45869;52.698;6.210;2023-05-07T13:29:21;15.55;;;13.30;;
60016;SDS011;45869;52.698;6.210;2023-05-07T13:31:54;17.23;;;13.90;;
60016;SDS011;45869;52.698;6.210;2023-05-07T13:34:20;15.77;;;13.15;;
60016;SDS011;45869;52.698;6.210;2023-05-07T13:36:46;15.30;;;13.05;;
60016;SDS011;45869;52.698;6.210;2023-05-07T13:39:12;16.77;;;14.18;;
60016;SDS011;45869;52.698;6.210;2023-05-07T13:41:38;16.98;;;14.07;;
60016;SDS011;45869;52.698;6.210;2023-05-07T13:44:04;15.85;;;13.32;;
60016;SDS011;45869;52.698;6.210;2023-05-07T13:46:30;15.48;;;13.20;;
60016;SDS011;45869;52.698;6.210;2023-05-07T13:48:56;15.35;;;13.05;;
60016;SDS011;45869;52.698;6.210;2023-05-07T13:51:22;15.35;;;12.40;;
60016;SDS011;45869;52.698;6.210;2023-05-07T13:53:48;15.85;;;12.90;;
60016;SDS011;45869;52.698;6.210;2023-05-07T13:56:15;14.95;;;12.43;;
60016;SDS011;45869;52.698;6.210;2023-05-07T13:58:41;14.02;;;12.38;;
60016;SDS011;45869;52.698;6.210;2023-05-07T14:01:07;16.05;;;12.80;;
60016;SDS011;45869;52.698;6.210;2023-05-07T14:03:33;14.73;;;12.25;;
60016;SDS011;45869;52.698;6.210;2023-05-07T14:06:00;15.60;;;12.82;;
60016;SDS011;45869;52.698;6.210;2023-05-07T14:08:26;16.88;;;12.60;;
60016;SDS011;45869;52.698;6.210;2023-05-07T14:10:53;14.80;;;12.80;;
60016;SDS011;45869;52.698;6.210;2023-05-07T14:13:19;16.92;;;12.43;;
60016;SDS011;45869;52.698;6.210;2023-05-07T14:15:45;17.02;;;13.25;;
60016;SDS011;45869;52.698;6.210;2023-05-07T14:18:12;15.57;;;13.40;;
60016;SDS011;45869;52.698;6.210;2023-05-07T14:20:38;18.27;;;12.77;;
60016;SDS011;45869;52.698;6.210;2023-05-07T14:23:04;15.73;;;12.27;;
60016;SDS011;45869;52.698;6.210;2023-05-07T14:25:33;13.35;;;11.63;;
60016;SDS011;45869;52.698;6.210;2023-05-07T14:28:08;14.73;;;12.48;;
60016;SDS011;45869;52.698;6.210;2023-05-07T14:30:34;15.35;;;12.38;;
60016;SDS011;45869;52.698;6.210;2023-05-07T14:33:00;14.50;;;12.63;;